Time;durP1;ratioP1;P1;durP2;ratioP2;P2;SDS_P1;SDS_P2;PMS_P1;PMS_P2;Temp;Humidity;BMP_temperature;BMP_pressure;BME280_temperature;BME280_humidity;BME280_pressure;Samples;Min_cycle;Max_cycle;Signal;HPM_P1;HPM_P2
2021/10/09 00:00:33;;;;;;;41.70;25.65;;;;;;;;;;5052021;28;20078;-58
2021/10/09 00:02:59;;;;;;;45.40;26.92;;;;;;;;;;5052032;28;20389;-56
2021/10/09 00:05:25;;;;;;;40.63;27.10;;;;;;;;;;5050660;28;20071;-56
2021/10/09 00:07:51;;;;;;;44.00;28.33;;;;;;;;;;5051875;28;20040;-58
2021/10/09 00:10:28;;;;;;;43.78;26.17;;;;;;;;;;5050493;28;20070;-54
2021/10/09 00:12:55;;;;;;;44.85;28.98;;;;;;;;;;5050840;28;20025;-56
2021/10/09 00:15:21;;;;;;;43.20;27.02;;;;;;;;;;5050537;28;20021;-56
2021/10/09 00:17:47;;;;;;;42.17;26.63;;;;;;;;;;5052847;28;20086;-58
2021/10/09 00:20:13;;;;;;;44.15;27.52;;;;;;;;;;5052223;28;20032;-57
2021/10/09 00:22:39;;;;;;;42.80;28.80;;;;;;;;;;5053036;28;20061;-59
2021/10/09 00:25:06;;;;;;;47.15;28.77;;;;;;;;;;5053026;28;20504;-58
2021/10/09 00:27:32;;;;;;;46.42;28.20;;;;;;;;;;5051834;28;20025;-57
2021/10/09 00:29:58;;;;;;;42.63;26.90;;;;;;;;;;5052787;28;20040;-58
2021/10/09 00:32:25;;;;;;;47.40;29.23;;;;;;;;;;5052889;28;20112;-58
2021/10/09 00:34:51;;;;;;;47.20;28.40;;;;;;;;;;5052515;28;20104;-58
2021/10/09 00:37:17;;;;;;;50.00;29.17;;;;;;;;;;5052147;28;20710;-58
2021/10/09 00:39:43;;;;;;;46.90;29.55;;;;;;;;;;5050348;28;20123;-56
2021/10/09 00:42:10;;;;;;;48.97;29.50;;;;;;;;;;5052336;28;20338;-58
2021/10/09 00:44:36;;;;;;;49.13;28.70;;;;;;;;;;5050830;28;20044;-57
2021/10/09 00:47:03;;;;;;;48.80;31.75;;;;;;;;;;5052060;28;20024;-58
2021/10/09 00:49:30;;;;;;;52.20;31.23;;;;;;;;;;5051696;28;20021;-59
2021/10/09 00:51:57;;;;;;;47.17;30.38;;;;;;;;;;5050556;28;20312;-58
2021/10/09 00:54:23;;;;;;;49.20;30.75;;;;;;;;;;5052012;28;20381;-52
2021/10/09 00:56:53;;;;;;;49.50;29.92;;;;;;;;;;5052525;28;20104;-57
2021/10/09 00:59:20;;;;;;;49.33;31.98;;;;;;;;;;5050885;28;20029;-58
2021/10/09 01:01:46;;;;;;;48.83;31.40;;;;;;;;;;5051937;28;20028;-58
2021/10/09 01:04:12;;;;;;;48.67;30.70;;;;;;;;;;5051654;28;20021;-58
2021/10/09 01:06:38;;;;;;;49.97;30.35;;;;;;;;;;5075490;22;20040;-66
2021/10/09 01:09:04;;;;;;;49.67;31.58;;;;;;;;;;5031001;28;20049;-68
2021/10/09 01:11:31;;;;;;;51.58;31.77;;;;;;;;;;5031994;28;20036;-67
2021/10/09 01:13:57;;;;;;;55.25;34.20;;;;;;;;;;5032608;28;20112;-68
2021/10/09 01:16:24;;;;;;;55.95;32.13;;;;;;;;;;5032415;28;20036;-67
2021/10/09 01:18:51;;;;;;;52.95;30.00;;;;;;;;;;5050229;28;20029;-67
2021/10/09 01:21:17;;;;;;;56.03;31.60;;;;;;;;;;5031709;28;20448;-67
2021/10/09 01:23:43;;;;;;;52.33;31.15;;;;;;;;;;5050306;28;20017;-68
2021/10/09 01:26:10;;;;;;;55.80;32.17;;;;;;;;;;5051843;28;20021;-65
2021/10/09 01:28:37;;;;;;;56.65;32.67;;;;;;;;;;5036176;28;20055;-67
2021/10/09 01:31:03;;;;;;;53.42;31.38;;;;;;;;;;5053548;28;20024;-68
2021/10/09 01:33:29;;;;;;;57.15;34.03;;;;;;;;;;5053992;28;20017;-68
2021/10/09 01:35:56;;;;;;;57.90;35.58;;;;;;;;;;5053924;28;20492;-67
2021/10/09 01:38:24;;;;;;;52.00;31.45;;;;;;;;;;5053668;28;20025;-69
2021/10/09 01:40:50;;;;;;;49.15;31.38;;;;;;;;;;5035683;28;20067;-68
2021/10/09 01:43:18;;;;;;;56.17;31.83;;;;;;;;;;5053662;28;20029;-68
2021/10/09 01:45:44;;;;;;;53.72;32.70;;;;;;;;;;5053638;28;20021;-67
2021/10/09 01:48:11;;;;;;;58.35;34.42;;;;;;;;;;5035593;28;20052;-68
2021/10/09 01:50:37;;;;;;;55.85;32.20;;;;;;;;;;5035403;28;20052;-68
2021/10/09 01:53:05;;;;;;;57.03;34.30;;;;;;;;;;5035553;28;20499;-67
2021/10/09 01:55:31;;;;;;;61.35;35.33;;;;;;;;;;5053453;28;20060;-67
2021/10/09 01:57:57;;;;;;;52.97;30.83;;;;;;;;;;5053345;28;20029;-68
2021/10/09 02:00:23;;;;;;;58.75;35.45;;;;;;;;;;5053209;28;20028;-67
2021/10/09 02:02:50;;;;;;;59.33;35.22;;;;;;;;;;5053235;28;20060;-68
2021/10/09 02:05:16;;;;;;;62.15;35.00;;;;;;;;;;5053207;28;20104;-68
2021/10/09 02:07:43;;;;;;;60.78;36.25;;;;;;;;;;5053038;28;20456;-67
2021/10/09 02:10:12;;;;;;;55.55;33.53;;;;;;;;;;5035097;28;20048;-67
2021/10/09 02:12:38;;;;;;;59.17;35.97;;;;;;;;;;5053158;28;20388;-67
2021/10/09 02:15:17;;;;;;;61.88;33.13;;;;;;;;;;5053361;28;20028;-67
2021/10/09 02:18:00;;;;;;;63.83;36.25;;;;;;;;;;5052959;28;20021;-68
2021/10/09 02:25:55;;;;;;;58.75;34.05;;;;;;;;;;5053313;28;20044;-67
2021/10/09 02:28:25;;;;;;;65.80;35.78;;;;;;;;;;5034830;28;20029;-68
2021/10/09 02:30:52;;;;;;;56.92;34.63;;;;;;;;;;5052541;28;20100;-67
2021/10/09 02:33:18;;;;;;;60.83;36.50;;;;;;;;;;5052925;28;20480;-68
2021/10/09 02:35:44;;;;;;;62.97;35.33;;;;;;;;;;5052855;28;20044;-69
2021/10/09 02:38:11;;;;;;;55.30;31.58;;;;;;;;;;5052415;28;20512;-68
2021/10/09 02:40:38;;;;;;;57.75;34.92;;;;;;;;;;5034732;28;20174;-67
2021/10/09 02:43:04;;;;;;;67.80;35.90;;;;;;;;;;5034838;28;20021;-67
2021/10/09 02:45:30;;;;;;;59.70;36.10;;;;;;;;;;5034730;28;20056;-67
2021/10/09 02:47:57;;;;;;;59.80;34.38;;;;;;;;;;5034703;28;20029;-67
2021/10/09 02:50:23;;;;;;;58.80;35.45;;;;;;;;;;5034315;28;20144;-68
2021/10/09 02:52:49;;;;;;;65.55;38.75;;;;;;;;;;5052471;28;20047;-67
2021/10/09 02:55:18;;;;;;;64.85;37.78;;;;;;;;;;5034636;28;20060;-67
2021/10/09 02:57:44;;;;;;;57.70;35.50;;;;;;;;;;5034685;28;20362;-67
2021/10/09 03:00:11;;;;;;;62.20;37.45;;;;;;;;;;5034208;28;20024;-66
2021/10/09 03:02:37;;;;;;;61.78;35.40;;;;;;;;;;5034452;28;20053;-67
2021/10/09 03:05:03;;;;;;;67.22;38.83;;;;;;;;;;5052131;28;20104;-68
2021/10/09 03:07:29;;;;;;;68.97;37.30;;;28.70;92.80;;;;;;5051784;28;20073;-67
2021/10/09 03:09:55;;;;;;;59.92;35.35;;;9.00;99.90;;;;;;5033900;28;20039;-68
2021/10/09 03:12:20;;;;;;;67.10;38.65;;;8.30;99.90;;;;;;5052158;28;20500;-67
2021/10/09 03:14:46;;;;;;;64.68;37.28;;;8.30;99.90;;;;;;5052227;28;20064;-68
2021/10/09 03:17:12;;;;;;;73.07;40.80;;;8.20;99.90;;;;;;5051904;28;20031;-68
2021/10/09 03:19:37;;;;;;;65.38;36.63;;;8.20;99.90;;;;;;5051710;28;20127;-67
2021/10/09 03:22:03;;;;;;;66.38;38.63;;;8.20;99.90;;;;;;5034042;28;20021;-67
2021/10/09 03:24:29;;;;;;;68.38;37.28;;;8.20;99.90;;;;;;5034006;28;20053;-67
2021/10/09 03:26:54;;;;;;;64.82;37.50;;;8.20;99.90;;;;;;5034019;28;20021;-68
2021/10/09 03:29:20;;;;;;;81.30;39.72;;;8.10;99.90;;;;;;5051786;28;20396;-68
2021/10/09 03:31:45;;;;;;;65.35;36.85;;;8.10;99.90;;;;;;5033663;28;20096;-67
2021/10/09 03:34:11;;;;;;;62.17;37.05;;;8.10;99.90;;;;;;5033781;28;20488;-67
2021/10/09 03:36:37;;;;;;;65.20;38.22;;;8.00;99.90;;;;;;5033426;28;20029;-68
2021/10/09 03:39:07;;;;;;;63.78;37.63;;;8.00;99.90;;;;;;5051428;28;20028;-67
2021/10/09 03:41:33;;;;;;;66.72;37.88;;;8.00;99.90;;;;;;5051212;28;20032;-69
2021/10/09 03:43:59;;;;;;;63.30;37.13;;;8.00;99.90;;;;;;5033761;28;20384;-67
2021/10/09 03:46:27;;;;;;;63.35;37.20;;;8.00;99.90;;;;;;5033714;28;20025;-67
2021/10/09 03:54:08;;;;;;;68.00;39.55;;;8.00;99.90;;;;;;5051674;28;20047;-68
2021/10/09 03:56:34;;;;;;;65.88;36.83;;;7.90;99.90;;;;;;5051360;28;20516;-67
2021/10/09 03:59:03;;;;;;;61.78;34.40;;;7.90;99.90;;;;;;5033303;28;20377;-67
2021/10/09 04:01:29;;;;;;;62.30;37.53;;;7.80;99.90;;;;;;5033294;28;20025;-67
2021/10/09 04:03:55;;;;;;;65.10;37.15;;;7.90;99.90;;;;;;5051438;28;20467;-67
2021/10/09 04:06:20;;;;;;;66.93;38.97;;;7.80;99.90;;;;;;5051093;28;20058;-67
2021/10/09 04:08:46;;;;;;;67.28;36.80;;;7.80;99.90;;;;;;5033073;28;20095;-68
2021/10/09 04:11:11;;;;;;;65.97;37.67;;;7.80;99.90;;;;;;5033014;28;20496;-67
2021/10/09 04:13:37;;;;;;;66.57;37.28;;;7.80;99.90;;;;;;5050991;28;20037;-67
2021/10/09 04:16:03;;;;;;;64.43;36.33;;;7.80;99.90;;;;;;5051083;28;20392;-67
2021/10/09 04:18:28;;;;;;;68.00;36.15;;;7.80;99.90;;;;;;5051094;28;20025;-69
2021/10/09 04:20:54;;;;;;;63.90;36.13;;;7.80;99.90;;;;;;5032813;28;20072;-67
2021/10/09 04:23:19;;;;;;;64.95;35.90;;;7.70;99.90;;;;;;5051019;28;20102;-67
2021/10/09 04:25:45;;;;;;;61.83;35.50;;;7.70;99.90;;;;;;5050988;28;20068;-68
2021/10/09 04:28:10;;;;;;;63.55;35.95;;;7.70;99.90;;;;;;5050838;28;20029;-68
2021/10/09 04:30:36;;;;;;;67.60;36.13;;;7.70;99.90;;;;;;5050477;28;20029;-67
2021/10/09 04:33:02;;;;;;;72.10;40.30;;;7.70;99.90;;;;;;5051041;28;20057;-67
2021/10/09 04:35:28;;;;;;;63.78;37.38;;;7.60;99.90;;;;;;5050962;28;20024;-68
2021/10/09 04:37:54;;;;;;;70.50;38.80;;;7.60;99.90;;;;;;5050801;28;20036;-68
2021/10/09 04:40:19;;;;;;;74.13;41.00;;;7.60;99.90;;;;;;5032628;28;20021;-69
2021/10/09 04:42:45;;;;;;;64.78;38.05;;;7.50;99.90;;;;;;5050892;28;20100;-66
2021/10/09 04:45:10;;;;;;;77.22;40.35;;;7.50;99.90;;;;;;5050957;28;20021;-66
2021/10/09 04:47:37;;;;;;;71.60;39.72;;;7.50;99.90;;;;;;5050734;28;20546;-68
2021/10/09 04:50:04;;;;;;;66.93;37.28;;;7.50;99.90;;;;;;5050695;28;20025;-68
2021/10/09 04:52:29;;;;;;;73.07;38.30;;;7.50;99.90;;;;;;5050777;28;20044;-68
2021/10/09 04:54:55;;;;;;;74.63;41.03;;;7.60;99.90;;;;;;5050856;28;20069;-68
2021/10/09 04:57:20;;;;;;;76.68;39.63;;;7.50;99.90;;;;;;5032996;28;20115;-67
2021/10/09 04:59:46;;;;;;;73.47;39.70;;;7.50;99.90;;;;;;5050499;28;20384;-69
2021/10/09 05:02:11;;;;;;;67.80;37.40;;;7.40;99.90;;;;;;5053929;28;20024;-68
2021/10/09 05:04:37;;;;;;;73.85;40.50;;;7.40;99.90;;;;;;5036729;28;20106;-68
2021/10/09 05:07:03;;;;;;;71.85;39.75;;;7.40;99.90;;;;;;5054230;28;20029;-68
2021/10/09 05:09:28;;;;;;;67.20;37.60;;;7.40;99.90;;;;;;5054241;28;20025;-66
2021/10/09 05:11:54;;;;;;;78.55;41.05;;;7.40;99.90;;;;;;5054446;28;20044;-67
2021/10/09 05:14:19;;;;;;;76.20;40.05;;;7.40;99.90;;;;;;5054487;28;20388;-68
2021/10/09 05:16:45;;;;;;;72.45;39.90;;;7.40;99.90;;;;;;5054357;28;20083;-67
2021/10/09 05:19:11;;;;;;;71.10;39.65;;;7.40;99.90;;;;;;5054245;28;20524;-68
2021/10/09 05:21:36;;;;;;;73.40;40.28;;;7.40;99.90;;;;;;5036197;28;20402;-68
2021/10/09 05:24:02;;;;;;;65.57;36.45;;;7.40;99.90;;;;;;5054125;28;20431;-66
2021/10/09 05:26:28;;;;;;;78.13;39.38;;;7.40;99.90;;;;;;5054212;28;20441;-67
2021/10/09 05:28:54;;;;;;;73.70;39.58;;;7.30;99.90;;;;;;5053897;28;20024;-68
2021/10/09 05:31:31;;;;;;;71.45;38.08;;;7.40;99.90;;;;;;5035575;28;20096;-68
2021/10/09 05:33:57;;;;;;;69.50;40.38;;;7.40;99.90;;;;;;5053998;28;20104;-66
2021/10/09 05:36:23;;;;;;;70.53;39.25;;;7.40;99.90;;;;;;5036052;28;20114;-69
2021/10/09 05:38:51;;;;;;;73.05;39.67;;;7.40;99.90;;;;;;5035877;28;20021;-68
2021/10/09 05:41:17;;;;;;;75.07;39.13;;;7.40;99.90;;;;;;5053593;28;20049;-68
2021/10/09 05:43:44;;;;;;;77.80;40.30;;;7.40;99.90;;;;;;5053762;28;20123;-68
2021/10/09 05:46:10;;;;;;;77.03;40.57;;;7.40;99.90;;;;;;5053707;28;20028;-68
2021/10/09 05:48:37;;;;;;;78.10;41.28;;;7.40;99.90;;;;;;5035688;28;20029;-68
2021/10/09 05:51:17;;;;;;;74.35;39.78;;;7.40;99.90;;;;;;5053446;28;20112;-68
2021/10/09 05:54:02;;;;;;;71.53;39.85;;;7.30;99.90;;;;;;5051847;28;20017;-68
2021/10/09 05:56:41;;;;;;;71.70;38.40;;;7.30;99.90;;;;;;5048897;28;20013;-68
2021/10/09 06:32:10;;;;;;;66.82;37.63;;;7.60;99.90;;;;;;5052296;28;20040;-67
2021/10/09 06:59:27;;;;;;;63.20;36.53;;;8.00;99.90;;;;;;5052323;28;20033;-66
2021/10/09 07:01:47;;;;;;;60.13;34.55;;;;;;;;;;5052234;28;20154;-66
2021/10/09 07:04:13;;;;;;;57.38;34.92;;;;;;;;;;5052227;28;20043;-66
2021/10/09 07:06:41;;;;;;;57.83;34.88;;;;;;;;;;5034062;28;20024;-67
2021/10/09 07:09:07;;;;;;;57.45;34.00;;;;;;;;;;5075510;22;20056;-55
2021/10/09 07:11:33;;;;;;;58.67;34.15;;;;;;;;;;5052677;28;20025;-57
2021/10/09 07:13:59;;;;;;;56.97;34.05;;;;;;;;;;5053509;28;20017;-53
2021/10/09 07:16:25;;;;;;;52.70;31.83;;;;;;;;;;5053184;28;20362;-56
2021/10/09 07:18:51;;;;;;;59.63;33.85;;;;;;;;;;5052817;28;20033;-56
2021/10/09 07:21:17;;;;;;;51.45;31.33;;;;;;;;;;5034964;28;20531;-58
2021/10/09 07:23:43;;;;;;;49.15;30.92;;;;;;;;;;5052168;28;20028;-56
2021/10/09 07:26:10;;;;;;;54.13;30.85;;;;;;;;;;5052484;28;20028;-54
2021/10/09 07:28:36;;;;;;;50.03;30.35;;;;;;;;;;5034328;28;20071;-54
2021/10/09 07:31:02;;;;;;;50.03;31.20;;;;;;;;;;5052034;28;20028;-57
2021/10/09 07:33:28;;;;;;;48.53;30.15;;;;;;;;;;5034468;28;20061;-55
2021/10/09 07:35:54;;;;;;;44.33;28.92;;;;;;;;;;5052331;28;20041;-57
2021/10/09 07:38:20;;;;;;;47.55;30.05;;;;;;;;;;5034219;28;20029;-57
2021/10/09 07:40:46;;;;;;;47.88;29.48;;;;;;;;;;5051846;28;20025;-55
2021/10/09 07:43:13;;;;;;;47.35;29.05;;;;;;;;;;5052235;28;20357;-55
2021/10/09 07:45:39;;;;;;;49.40;29.05;;;;;;;;;;5052050;28;20053;-53
2021/10/09 07:48:05;;;;;;;52.90;31.02;;;;;;;;;;5034036;28;20048;-57
2021/10/09 07:53:49;;;;;;;57.65;30.40;;;;;;;;;;5052561;28;20585;-55
2021/10/09 07:56:15;;;;;;;51.10;28.98;;;;;;;;;;5038417;28;20037;-59
2021/10/09 08:02:05;;;;;;;45.92;27.75;;;;;;;;;;4975970;28;20023;-56
2021/10/09 08:05:06;;;;;;;46.23;26.30;;;;;;;;;;5029800;28;20041;-54
2021/10/09 08:07:50;;;;;;;48.20;26.27;;;;;;;;;;4995209;28;20048;-57
2021/10/09 08:10:21;;;;;;;47.33;27.52;;;;;;;;;;5033759;28;20025;-56
2021/10/09 08:12:53;;;;;;;44.90;26.38;;;;;;;;;;5051634;28;20025;-60
2021/10/09 08:15:25;;;;;;;46.67;27.23;;;;;;;;;;5033867;28;20025;-60
2021/10/09 08:21:45;;;;;;;44.85;25.48;;;;;;;;;;4951028;29;20043;-60
2021/10/09 08:24:36;;;;;;;45.08;25.52;;;;;;;;;;4952061;29;20038;-61
2021/10/09 08:27:35;;;;;;;43.03;26.20;;;;;;;;;;5031833;28;20059;-56
2021/10/09 08:40:44;;;;;;;38.83;24.30;;;;;;;;;;5055771;28;20048;-59
2021/10/09 08:43:10;;;;;;;37.55;25.10;;;;;;;;;;5055401;28;20393;-58
2021/10/09 08:45:36;;;;;;;40.65;25.98;;;;;;;;;;5055858;28;20054;-61
2021/10/09 08:48:02;;;;;;;44.70;26.27;;;;;;;;;;5055676;28;20032;-60
2021/10/09 08:50:28;;;;;;;46.35;24.90;;;;;;;;;;5055238;28;20032;-65
2021/10/09 08:53:01;;;;;;;41.03;23.25;;;;;;;;;;5037258;28;20021;-64
2021/10/09 08:55:28;;;;;;;39.33;22.52;;;;;;;;;;5035733;28;20071;-63
2021/10/09 08:57:58;;;;;;;39.90;22.90;;;;;;;;;;5054167;28;20127;-63
2021/10/09 09:00:48;;;;;;;38.45;22.45;;;;;;;;;;5055024;28;20083;-63
2021/10/09 09:03:18;;;;;;;39.25;23.13;;;;;;;;;;5055065;28;20025;-63
2021/10/09 09:35:21;;;;;;;35.40;22.88;;;;;;;;;;5054927;28;20035;-65
2021/10/09 09:40:34;;;;;;;34.05;21.48;;;;;;;;;;5054234;28;20103;-64
2021/10/09 09:43:01;;;;;;;35.95;21.63;;;;;;;;;;5036466;28;20544;-64
2021/10/09 09:45:27;;;;;;;34.30;20.25;;;;;;;;;;5054233;28;20481;-63
2021/10/09 09:47:55;;;;;;;36.88;21.30;;;;;;;;;;5035639;28;20025;-64
2021/10/09 09:50:22;;;;;;;37.15;21.40;;;;;;;;;;5053882;28;20048;-63
2021/10/09 09:52:48;;;;;;;34.10;21.40;;;;;;;;;;5054240;28;20079;-64
2021/10/09 09:55:15;;;;;;;34.67;20.42;;;;;;;;;;5054175;28;20473;-63
2021/10/09 09:57:42;;;;;;;30.73;20.52;;;;;;;;;;5053949;28;20033;-64
2021/10/09 10:00:09;;;;;;;33.53;21.08;;;;;;;;;;5053770;28;20025;-60
2021/10/09 10:02:45;;;;;;;37.70;20.50;;;;;;;;;;5036064;28;20107;-64
2021/10/09 10:05:12;;;;;;;34.13;20.88;;;;;;;;;;5054224;28;20562;-61
2021/10/09 10:07:39;;;;;;;37.10;21.35;;;;;;;;;;5053436;28;20036;-63
2021/10/09 10:10:05;;;;;;;35.65;21.38;;;;;;;;;;5053120;28;20070;-62
2021/10/09 10:12:32;;;;;;;30.02;20.92;;;;;;;;;;5035656;28;20639;-64
2021/10/09 10:14:59;;;;;;;35.85;21.05;;;;;;;;;;5053812;28;20036;-62
2021/10/09 10:17:44;;;;;;;30.17;19.50;;;;;;;;;;5053658;28;20053;-63
2021/10/09 10:20:20;;;;;;;30.67;20.25;;;;;;;;;;5035505;28;20370;-63
2021/10/09 10:22:49;;;;;;;33.55;21.75;;;;;;;;;;5035092;28;20045;-63
2021/10/09 10:25:25;;;;;;;32.85;21.80;;;;;;;;;;5053626;28;20017;-63
2021/10/09 10:27:58;;;;;;;32.92;21.20;;;;;;;;;;5053329;28;20136;-61
2021/10/09 10:30:25;;;;;;;30.73;20.17;;;;;;;;;;5035363;28;20021;-62
2021/10/09 10:32:58;;;;;;;30.48;19.75;;;;;;;;;;5053318;28;20029;-63
2021/10/09 10:35:30;;;;;;;35.72;21.00;;;;;;;;;;5053628;28;20032;-64
2021/10/09 10:38:08;;;;;;;31.77;21.42;;;;;;;;;;5036012;28;20392;-62
2021/10/09 10:41:03;;;;;;;30.67;20.60;;;;;;;;;;5052716;28;20442;-64
2021/10/09 10:46:18;;;;;;;33.17;20.70;;;;;;;;;;5052911;28;20032;-64
2021/10/09 10:48:46;;;;;;;32.13;21.73;;;;;;;;;;5036413;28;20048;-65
2021/10/09 10:51:32;;;;;;;35.33;20.50;;;;;;;;;;5052425;28;20507;-63
2021/10/09 10:54:09;;;;;;;31.13;20.75;;;;;;;;;;5052697;28;20017;-64
2021/10/09 10:56:36;;;;;;;34.38;19.73;;;;;;;;;;5034579;28;20520;-62
2021/10/09 10:59:21;;;;;;;35.28;22.13;;;;;;;;;;5051630;28;20029;-63
2021/10/09 11:01:47;;;;;;;30.27;21.23;;;;;;;;;;5052471;28;20036;-63
2021/10/09 11:04:16;;;;;;;29.92;21.80;;;;;;;;;;5053069;28;20150;-63
2021/10/09 11:06:48;;;;;;;31.75;22.65;;;;;;;;;;5053399;28;20396;-63
2021/10/09 11:09:22;;;;;;;30.90;23.38;;;;;;;;;;5052274;28;20041;-64
2021/10/09 11:11:48;;;;;;;29.92;21.77;;;;;;;;;;5052086;28;20048;-60
2021/10/09 11:14:25;;;;;;;27.48;22.05;;;;;;;;;;5052288;28;20369;-58
2021/10/09 11:17:03;;;;;;;28.48;23.23;;;;;;;;;;5052181;28;20025;-59
2021/10/09 11:19:42;;;;;;;28.67;23.27;;;;;;;;;;5051769;28;20108;-59
2021/10/09 11:22:09;;;;;;;30.48;23.63;;;;;;;;;;5052563;28;20370;-66
2021/10/09 11:24:47;;;;;;;31.42;22.77;;;;;;;;;;5034325;28;20060;-58
2021/10/09 11:27:14;;;;;;;27.00;22.23;;;;;;;;;;5034262;28;20025;-58
2021/10/09 11:29:41;;;;;;;32.28;22.88;;;;;;;;;;5034093;28;20033;-61
2021/10/09 11:32:12;;;;;;;27.48;22.83;;;;;;;;;;5052015;28;20029;-60
2021/10/09 11:34:51;;;;;;;30.88;23.33;;;;;;;;;;5052197;28;20050;-68
2021/10/09 11:37:18;;;;;;;26.55;22.80;;;;;;;;;;5051682;28;20071;-59
2021/10/09 11:39:56;;;;;;;29.27;23.33;;;;;;;;;;5034039;28;20037;-59
2021/10/09 11:42:31;;;;;;;24.80;21.67;;;;;;;;;;5052073;28;20534;-60
2021/10/09 11:45:00;;;;;;;26.25;21.70;;;;;;;;;;5051893;28;20021;-58
2021/10/09 11:53:33;;;;;;;31.05;23.13;;;;;;;;;;5052426;28;20456;-59
2021/10/09 11:55:50;;;;;;;28.10;22.13;;;;;;;;;;5052297;28;20044;-60
2021/10/09 11:58:16;;;;;;;27.90;22.33;;;;;;;;;;5051886;28;20426;-61
2021/10/09 12:00:42;;;;;;;29.55;21.92;;;;;;;;;;5051809;28;20028;-62
2021/10/09 12:03:26;;;;;;;29.23;23.00;;;;;;;;;;5051568;28;20022;-61
2021/10/09 12:05:55;;;;;;;26.75;20.98;;;;;;;;;;5033762;28;20031;-59
2021/10/09 12:08:28;;;;;;;28.90;21.55;;;;;;;;;;5051273;28;20119;-59
2021/10/09 12:11:12;;;;;;;28.23;22.23;;;;;;;;;;5050807;28;20025;-63
2021/10/09 12:13:57;;;;;;;27.65;22.23;;;;;;;;;;5033890;28;20017;-61
2021/10/09 12:16:29;;;;;;;25.13;22.15;;;;;;;;;;5051195;28;20499;-58
2021/10/09 12:18:57;;;;;;;24.67;20.58;;;;;;;;;;5033461;28;20047;-62
2021/10/09 12:21:25;;;;;;;25.90;20.58;;;;;;;;;;5051020;28;20131;-58
2021/10/09 12:23:52;;;;;;;23.57;19.37;;;;;;;;;;5033699;28;20024;-61
2021/10/09 12:26:19;;;;;;;25.40;19.98;;;;;;;;;;5051454;28;20191;-59
2021/10/09 12:29:03;;;;;;;28.70;20.58;;;;;;;;;;5051015;28;20460;-60
2021/10/09 12:31:30;;;;;;;27.08;20.15;;;;;;;;;;5050788;28;20037;-59
2021/10/09 12:33:56;;;;;;;27.63;21.65;;;;;;;;;;5051097;28;20036;-59
2021/10/09 12:39:19;;;;;;;26.33;20.30;;;;;;;;;;5051519;28;20029;-60
2021/10/09 12:41:45;;;;;;;26.15;20.65;;;;;;;;;;5034285;28;20106;-59
2021/10/09 12:44:11;;;;;;;26.10;20.20;;;;;;;;;;5033250;28;20056;-62
2021/10/09 12:46:37;;;;;;;26.70;19.85;;;8.10;99.90;;;;;;5032954;28;20040;-62
2021/10/09 12:49:02;;;;;;;24.17;19.90;;;28.60;92.30;;;;;;5050994;28;20036;-59
2021/10/09 12:51:28;;;;;;;26.02;20.17;;;28.20;91.40;;;;;;5050673;28;20096;-62
2021/10/09 12:53:56;;;;;;;31.63;20.63;;;28.60;91.10;;;;;;5033165;28;20443;-61
2021/10/09 12:56:21;;;;;;;26.38;20.67;;;28.50;90.60;;;;;;5051027;28;20027;-62
2021/10/09 12:58:47;;;;;;;23.15;19.67;;;28.30;90.50;;;;;;5033141;28;20124;-60
2021/10/09 13:01:13;;;;;;;23.27;19.55;;;28.30;90.80;;;;;;5050719;28;20028;-62
2021/10/09 13:03:39;;;;;;;26.25;21.08;;;;;;;;;;5050405;28;20051;-59
2021/10/09 13:06:04;;;;;;;27.02;20.50;;;28.50;91.10;;;;;;5051073;28;20446;-60
2021/10/09 13:08:30;;;;;;;26.05;20.30;;;28.10;89.90;;;;;;5050349;28;20125;-62
2021/10/09 13:10:59;;;;;;;26.88;21.20;;;28.60;90.30;;;;;;5077422;22;20439;-66
2021/10/09 13:13:24;;;;;;;28.40;22.13;;;28.60;90.60;;;;;;5031830;28;20373;-66
2021/10/09 13:15:50;;;;;;;24.80;19.50;;;29.00;88.60;;;;;;5032051;28;20028;-66
2021/10/09 13:18:15;;;;;;;26.45;19.67;;;29.00;90.20;;;;;;5049651;28;20032;-66
2021/10/09 13:20:41;;;;;;;24.63;21.00;;;29.30;90.60;;;;;;5049341;28;20101;-66
2021/10/09 13:23:07;;;;;;;28.88;22.00;;;29.60;89.70;;;;;;5052620;28;20072;-66
2021/10/09 13:25:32;;;;;;;25.08;19.40;;;29.30;88.90;;;;;;5035575;28;20017;-66
2021/10/09 13:27:59;;;;;;;25.75;21.05;;;29.20;91.00;;;;;;5053687;28;20056;-66
2021/10/09 13:30:25;;;;;;;25.70;21.20;;;29.20;88.10;;;;;;5053205;28;20029;-66
2021/10/09 13:32:51;;;;;;;25.90;18.67;;;29.20;87.90;;;;;;5053390;28;20025;-71
2021/10/09 13:35:17;;;;;;;24.73;20.20;;;29.90;87.30;;;;;;5053577;28;20400;-66
2021/10/09 13:37:51;;;;;;;26.92;19.40;;;29.70;88.50;;;;;;5035166;28;20057;-66
2021/10/09 13:40:17;;;;;;;26.92;20.25;;;29.90;87.30;;;;;;5034937;28;20025;-66
2021/10/09 13:42:43;;;;;;;23.42;19.13;;;29.50;87.90;;;;;;5053090;28;20478;-66
2021/10/09 13:45:09;;;;;;;24.67;19.27;;;29.10;87.30;;;;;;5052605;28;20074;-65
2021/10/09 13:47:35;;;;;;;25.33;19.52;;;29.30;86.50;;;;;;5035010;28;20083;-66
2021/10/09 13:50:04;;;;;;;21.90;18.17;;;28.90;86.20;;;;;;5052593;28;20500;-67
2021/10/09 13:52:29;;;;;;;24.15;19.55;;;29.20;87.50;;;;;;5035307;28;20470;-66
2021/10/09 13:54:55;;;;;;;23.63;19.35;;;;;;;;;;5053142;28;20032;-66
2021/10/09 13:57:21;;;;;;;26.35;19.95;;;29.70;86.00;;;;;;5052700;28;20033;-65
2021/10/09 13:59:46;;;;;;;22.45;19.00;;;29.20;86.20;;;;;;5052279;28;20025;-66
2021/10/09 14:02:12;;;;;;;23.75;19.25;;;29.50;85.50;;;;;;5052638;28;20021;-66
2021/10/09 14:04:39;;;;;;;23.25;18.77;;;29.70;84.80;;;;;;5052881;28;20013;-65
2021/10/09 14:07:05;;;;;;;22.55;18.92;;;29.70;83.10;;;;;;5052674;28;20032;-66
2021/10/09 14:09:30;;;;;;;26.85;18.77;;;29.90;84.10;;;;;;5052452;28;20036;-65
2021/10/09 14:11:56;;;;;;;22.02;18.67;;;30.30;86.10;;;;;;5052192;28;20107;-66
2021/10/09 14:14:24;;;;;;;25.27;19.42;;;30.60;86.10;;;;;;5052389;28;20642;-66
2021/10/09 14:16:56;;;;;;;25.33;19.80;;;29.90;84.30;;;;;;5052494;28;20073;-66
2021/10/09 14:19:22;;;;;;;24.95;19.88;;;29.90;83.60;;;;;;5034057;28;20036;-63
2021/10/09 14:21:47;;;;;;;23.30;19.38;;;30.00;84.00;;;;;;5052365;28;20021;-67
2021/10/09 14:24:16;;;;;;;23.25;18.60;;;29.60;84.20;;;;;;5052715;28;20033;-65
2021/10/09 14:26:42;;;;;;;22.05;18.90;;;29.60;85.80;;;;;;5034126;28;20103;-65
2021/10/09 14:29:07;;;;;;;25.45;19.88;;;29.90;85.50;;;;;;5034295;28;20473;-65
2021/10/09 14:31:33;;;;;;;22.35;18.65;;;29.70;83.50;;;;;;5033894;28;20028;-64
2021/10/09 14:33:59;;;;;;;23.98;19.70;;;30.00;83.10;;;;;;5051816;28;20114;-64
2021/10/09 14:36:24;;;;;;;23.42;18.48;;;30.30;81.80;;;;;;5034172;28;20037;-65
2021/10/09 14:38:50;;;;;;;23.30;18.92;;;30.70;81.30;;;;;;5051876;28;20110;-65
2021/10/09 14:41:16;;;;;;;23.88;19.10;;;30.70;81.90;;;;;;5033720;28;20500;-65
2021/10/09 14:43:41;;;;;;;23.13;18.58;;;29.90;81.70;;;;;;5052126;28;20044;-68
2021/10/09 14:48:53;;;;;;;22.85;18.27;;;30.10;80.10;;;;;;5052409;28;20102;-69
2021/10/09 15:01:12;;;;;;;25.60;18.02;;;29.80;81.60;;;;;;5052043;28;20471;-69
2021/10/09 15:20:07;;;;;;;24.88;19.15;;;29.30;83.50;;;;;;5051319;28;20481;-69
2021/10/09 15:22:32;;;;;;;24.80;19.08;;;29.10;82.70;;;;;;5033235;28;20025;-68
2021/10/09 15:24:59;;;;;;;22.20;18.30;;;28.60;83.80;;;;;;5051057;28;20027;-68
2021/10/09 15:27:26;;;;;;;22.90;18.20;;;28.50;84.30;;;;;;5051110;28;20025;-67
2021/10/09 15:29:52;;;;;;;24.38;17.55;;;29.00;83.90;;;;;;5051032;28;20172;-68
2021/10/09 15:32:18;;;;;;;24.17;18.88;;;28.80;83.40;;;;;;5051241;28;20122;-68
2021/10/09 15:34:44;;;;;;;26.35;19.48;;;;;;;;;;5051171;28;20079;-69
2021/10/09 15:37:10;;;;;;;24.33;18.40;;;;;;;;;;5051277;28;20025;-66
2021/10/09 15:39:36;;;;;;;21.27;18.35;;;;;;;;;;5050729;28;20032;-67
2021/10/09 15:42:03;;;;;;;22.73;18.75;;;;;;;;;;5050957;28;20479;-68
2021/10/09 15:44:29;;;;;;;24.52;19.30;;;;;;;;;;5050354;28;20040;-69
2021/10/09 15:46:56;;;;;;;24.52;18.80;;;;;;;;;;5050859;28;20025;-67
2021/10/09 15:49:22;;;;;;;24.48;18.65;;;;;;;;;;5032737;28;20350;-68
2021/10/09 15:51:48;;;;;;;24.73;19.48;;;;;;;;;;5032482;28;20028;-68
2021/10/09 15:54:14;;;;;;;26.17;18.77;;;;;;;;;;5050960;28;20033;-68
2021/10/09 15:56:40;;;;;;;23.98;17.55;;;;;;;;;;5032628;28;20036;-68
2021/10/09 15:59:06;;;;;;;28.05;18.38;;;;;;;;;;5032674;28;20481;-68
2021/10/09 16:01:32;;;;;;;23.75;18.02;;;;;;;;;;5050447;28;20021;-68
2021/10/09 16:04:00;;;;;;;23.83;17.27;;;;;;;;;;5032982;28;20082;-68
2021/10/09 16:06:26;;;;;;;21.50;16.88;;;;;;;;;;5050464;28;20017;-67
2021/10/09 16:08:52;;;;;;;22.85;17.58;;;;;;;;;;5050375;28;20083;-68
2021/10/09 16:11:18;;;;;;;23.17;18.38;;;;;;;;;;5032024;28;20542;-67
2021/10/09 16:13:44;;;;;;;24.35;17.67;;;;;;;;;;5032403;28;20082;-67
2021/10/09 16:16:10;;;;;;;22.33;17.27;;;;;;;;;;5032453;28;20029;-68
2021/10/09 16:18:36;;;;;;;22.20;16.70;;;;;;;;;;5032274;28;20485;-68
2021/10/09 16:21:02;;;;;;;46.58;41.53;;;;;;;;;;5049984;28;20025;-68